• Join FlightAware (Why Join?)
  • Login
  • US Flag 
07:02AM EDT


 

Airport Tracker/Info


-or-


 

Live Flight TrackerFlight Track Log ✈ CSN3477 ✈ 25-May-2012 ✈ ZPPP / KMG - ZPBS / BSD

Flight Track Log - Related Links

Times and Time Zones

All times are in EDT time to prevent confusion due to time zone crossing. See the CSN3477 flight status page for this flight to view local times or setup timezone preferences in your user account.

Time Position Orientation Groundspeed Altitude Reporting Facility
EDT Latitude Longitude Course Direction KTS MPH feet Rate Location/Type
11:55PM 25.0025 94.5834 88° East  Level Estimated
11:56PM 25.0081 94.8067 88° East  Level Estimated
11:57PM 25.0134 95.0300 89° East  Level Estimated
11:58PM 25.0184 95.2533 89° East  Level Estimated
11:59PM 25.0231 95.4766 89° East  Level Estimated
12:00AM 25.0274 95.6999 89° East  Level Estimated
12:01AM 25.0314 95.9232 89° East  Level Estimated
12:02AM 25.0351 96.1466 89° East  Level Estimated
12:03AM 25.0384 96.3700 89° East  Level Estimated
12:04AM 25.0414 96.5933 89° East  Level Estimated
12:05AM 25.0440 96.8167 89° East  Level Estimated
12:06AM 25.0463 97.0401 89° East  Level Estimated
12:07AM 25.0483 97.2635 89° East  Level Estimated
12:08AM 25.0500 97.4870 90° East  Level Estimated
12:09AM 25.0513 97.7104 90° East  Level Estimated
12:10AM 25.0523 97.9338 90° East  Level Estimated
12:11AM 25.0529 98.1572 90° East  Level Estimated
12:12AM 25.0532 98.3807 90° East  Level Estimated
12:13AM 25.0532 98.6041 90° East  Level Estimated
12:14AM 25.0529 98.8275 90° East  Level Estimated
12:15AM 25.0522 99.0509 90° East  Level Estimated